Time;durP1;ratioP1;P1;durP2;ratioP2;P2;SDS_P1;SDS_P2;PMS_P1;PMS_P2;Temp;Humidity;BMP_temperature;BMP_pressure;BME280_temperature;BME280_humidity;BME280_pressure;Samples;Min_cycle;Max_cycle;Signal;HPM_P1;HPM_P2
2022/10/25 00:00:17;;;;;;;1.80;1.20;;;12.50;99.90;;;;;;482791;246;28542;-68
2022/10/25 00:02:18;;;;;;;1.90;1.23;;;12.50;99.90;;;;;;482917;246;28817;-69
2022/10/25 00:04:20;;;;;;;1.10;1.07;;;12.60;99.90;;;;;;482915;246;28679;-69
2022/10/25 00:06:21;;;;;;;1.20;1.20;;;12.60;99.90;;;;;;482868;246;28224;-69
2022/10/25 00:08:22;;;;;;;1.97;1.30;;;12.60;99.90;;;;;;482914;246;28042;-67
2022/10/25 00:10:25;;;;;;;1.50;1.33;;;;;;;;;;482913;246;28282;-68
2022/10/25 00:12:26;;;;;;;1.33;1.23;;;12.70;99.90;;;;;;482938;245;27709;-67
2022/10/25 00:14:27;;;;;;;1.93;1.13;;;12.70;99.90;;;;;;482906;246;28768;-69
2022/10/25 00:16:28;;;;;;;1.80;1.40;;;12.70;99.90;;;;;;482859;246;28595;-70
2022/10/25 00:18:30;;;;;;;1.43;1.33;;;12.70;99.90;;;;;;482909;246;28810;-70
2022/10/25 00:20:31;;;;;;;1.63;1.13;;;12.70;99.90;;;;;;482910;246;28064;-70
2022/10/25 00:22:32;;;;;;;1.47;1.37;;;12.80;99.90;;;;;;482895;246;28197;-69
2022/10/25 00:24:33;;;;;;;1.33;1.23;;;12.80;99.90;;;;;;482911;246;28192;-68
2022/10/25 00:26:35;;;;;;;1.50;1.40;;;12.80;99.90;;;;;;482903;246;27967;-70
2022/10/25 00:28:36;;;;;;;2.60;1.47;;;12.80;99.90;;;;;;482941;246;28238;-68
2022/10/25 00:30:37;;;;;;;1.40;1.40;;;12.70;99.90;;;;;;482905;246;28320;-67
2022/10/25 00:32:38;;;;;;;3.40;1.40;;;12.70;99.90;;;;;;482912;246;28325;-68
2022/10/25 00:34:40;;;;;;;5.13;1.40;;;12.70;99.90;;;;;;482906;246;28386;-68
2022/10/25 00:36:41;;;;;;;1.37;1.30;;;12.70;99.90;;;;;;482845;246;28082;-71
2022/10/25 00:38:43;;;;;;;1.30;1.20;;;12.80;99.90;;;;;;482896;246;29030;-68
2022/10/25 00:40:43;;;;;;;1.40;1.30;;;12.80;99.90;;;;;;482865;246;28816;-69
2022/10/25 00:42:45;;;;;;;1.63;1.10;;;12.80;99.90;;;;;;482893;246;28768;-69
2022/10/25 00:44:46;;;;;;;1.30;1.20;;;12.80;99.90;;;;;;482920;246;28003;-68
2022/10/25 00:46:47;;;;;;;1.50;1.37;;;12.80;99.90;;;;;;482871;246;28224;-67
2022/10/25 00:48:48;;;;;;;2.40;1.50;;;12.80;99.90;;;;;;482897;246;27987;-68
2022/10/25 00:50:50;;;;;;;1.20;1.20;;;12.80;99.90;;;;;;482881;246;28076;-70
2022/10/25 00:52:51;;;;;;;1.10;1.10;;;12.70;99.90;;;;;;482906;246;28341;-68
2022/10/25 00:54:52;;;;;;;1.57;1.33;;;12.70;99.90;;;;;;482907;246;27947;-68
2022/10/25 00:56:53;;;;;;;2.93;1.67;;;12.70;99.90;;;;;;482857;246;28445;-70
2022/10/25 00:58:55;;;;;;;3.60;1.57;;;12.70;99.90;;;;;;482907;246;28741;-67
2022/10/25 01:00:56;;;;;;;1.40;1.30;;;12.70;99.90;;;;;;482913;246;27990;-68
2022/10/25 01:02:57;;;;;;;1.40;1.30;;;12.70;99.90;;;;;;482902;246;28646;-67
2022/10/25 01:04:58;;;;;;;2.77;1.50;;;12.70;99.90;;;;;;482899;246;28688;-69
2022/10/25 01:07:00;;;;;;;1.40;1.30;;;12.70;99.90;;;;;;482869;246;28618;-67
2022/10/25 01:09:01;;;;;;;1.77;1.67;;;12.70;99.90;;;;;;482866;246;27865;-68
2022/10/25 01:11:02;;;;;;;1.70;1.40;;;12.80;99.90;;;;;;482872;246;28574;-70
2022/10/25 01:13:05;;;;;;;1.53;1.17;;;;;;;;;;482906;246;28623;-68
2022/10/25 01:15:06;;;;;;;5.40;1.50;;;12.80;99.90;;;;;;482916;245;27217;-71
2022/10/25 01:17:07;;;;;;;1.40;1.30;;;12.90;99.90;;;;;;482862;246;28340;-68
2022/10/25 01:19:08;;;;;;;1.47;1.37;;;12.90;99.90;;;;;;482923;246;28452;-68
2022/10/25 01:21:10;;;;;;;1.37;1.30;;;12.90;99.90;;;;;;482947;246;28841;-67
2022/10/25 01:23:11;;;;;;;4.03;1.77;;;12.90;99.90;;;;;;482908;246;29046;-68
2022/10/25 01:25:12;;;;;;;3.77;1.50;;;12.90;99.90;;;;;;482884;246;28439;-70
2022/10/25 01:27:13;;;;;;;2.20;1.40;;;12.90;99.90;;;;;;482865;246;29044;-70
2022/10/25 01:29:15;;;;;;;2.40;1.40;;;13.00;99.90;;;;;;482912;246;27977;-69
2022/10/25 01:31:16;;;;;;;2.37;1.73;;;13.00;99.90;;;;;;482902;246;28068;-67
2022/10/25 01:33:17;;;;;;;5.43;1.70;;;12.90;99.90;;;;;;482891;246;28248;-68
2022/10/25 01:35:18;;;;;;;1.60;1.50;;;12.90;99.90;;;;;;482924;246;28060;-70
2022/10/25 01:37:20;;;;;;;2.23;1.70;;;12.90;99.90;;;;;;482861;246;28425;-68
2022/10/25 01:39:22;;;;;;;2.07;1.80;;;;;;;;;;482903;246;28034;-67
2022/10/25 01:41:23;;;;;;;2.57;1.30;;;12.90;99.90;;;;;;482899;246;27881;-69
2022/10/25 01:43:25;;;;;;;3.63;1.77;;;12.90;99.90;;;;;;482909;246;28011;-70
2022/10/25 01:45:26;;;;;;;3.20;1.40;;;12.90;99.90;;;;;;482895;246;28348;-67
2022/10/25 01:47:27;;;;;;;2.90;1.50;;;13.00;99.90;;;;;;482871;246;27931;-68
2022/10/25 01:49:28;;;;;;;2.83;1.93;;;13.00;99.90;;;;;;482896;246;27854;-67
2022/10/25 01:51:30;;;;;;;1.63;1.50;;;13.00;99.90;;;;;;482891;246;27974;-68
2022/10/25 01:53:31;;;;;;;6.73;1.70;;;13.00;99.90;;;;;;482904;246;27931;-70
2022/10/25 01:55:32;;;;;;;1.90;1.63;;;13.00;99.90;;;;;;482910;246;28442;-69
2022/10/25 01:57:33;;;;;;;3.67;1.53;;;13.00;99.90;;;;;;482859;246;28221;-68
2022/10/25 01:59:35;;;;;;;2.90;1.50;;;13.00;99.90;;;;;;482901;246;28181;-67
2022/10/25 02:01:36;;;;;;;1.70;1.60;;;13.00;99.90;;;;;;482898;246;28781;-67
2022/10/25 02:03:37;;;;;;;1.50;1.40;;;13.00;99.90;;;;;;482884;246;28478;-70
2022/10/25 02:05:38;;;;;;;5.60;1.80;;;13.00;99.90;;;;;;482903;246;28551;-67
2022/10/25 02:07:40;;;;;;;3.23;1.60;;;13.00;99.90;;;;;;482866;246;28192;-68
2022/10/25 02:09:41;;;;;;;5.47;1.40;;;12.90;99.90;;;;;;482907;246;28027;-67
2022/10/25 02:11:42;;;;;;;2.53;1.40;;;12.90;99.90;;;;;;482896;246;27972;-69
2022/10/25 02:13:43;;;;;;;1.83;1.13;;;12.90;99.90;;;;;;482895;246;27972;-69
2022/10/25 02:15:45;;;;;;;4.93;1.53;;;12.80;99.90;;;;;;482898;246;28213;-69
2022/10/25 02:17:46;;;;;;;2.20;1.50;;;12.70;99.90;;;;;;482846;246;28175;-68
2022/10/25 02:19:47;;;;;;;2.30;1.83;;;12.70;99.90;;;;;;482888;246;28408;-67
2022/10/25 02:21:48;;;;;;;1.83;1.70;;;12.80;99.90;;;;;;482883;245;27982;-68
2022/10/25 02:23:50;;;;;;;3.70;1.50;;;12.80;99.90;;;;;;482901;246;28552;-69
2022/10/25 02:25:52;;;;;;;3.23;1.67;;;;;;;;;;482867;246;28828;-68
2022/10/25 02:27:55;;;;;;;1.50;1.40;;;;;;;;;;482865;246;27035;-68
2022/10/25 02:29:56;;;;;;;1.97;1.30;;;12.80;99.90;;;;;;482906;246;27673;-70
2022/10/25 02:31:57;;;;;;;1.63;1.43;;;12.80;99.90;;;;;;482899;246;28828;-68
2022/10/25 02:33:58;;;;;;;1.40;1.30;;;12.80;99.90;;;;;;482898;246;28824;-68
2022/10/25 02:36:00;;;;;;;1.27;1.27;;;12.70;99.90;;;;;;482892;246;27875;-68
2022/10/25 02:38:01;;;;;;;8.27;1.83;;;12.70;99.90;;;;;;482864;246;27943;-69
2022/10/25 02:40:02;;;;;;;1.90;1.27;;;12.70;99.90;;;;;;482886;246;28407;-69
2022/10/25 02:42:04;;;;;;;1.87;1.30;;;12.70;99.90;;;;;;482905;246;28331;-67
2022/10/25 02:44:05;;;;;;;2.03;1.30;;;12.60;99.90;;;;;;482871;246;27971;-68
2022/10/25 02:46:06;;;;;;;2.03;1.33;;;12.60;99.90;;;;;;482865;246;28009;-73
2022/10/25 02:48:07;;;;;;;5.40;1.40;;;12.60;99.90;;;;;;482614;246;28330;-68
2022/10/25 02:50:08;;;;;;;2.13;1.50;;;12.60;99.90;;;;;;482881;246;28210;-69
2022/10/25 02:52:10;;;;;;;2.33;1.53;;;12.60;99.90;;;;;;482895;246;28755;-67
2022/10/25 02:54:11;;;;;;;1.43;1.30;;;12.60;99.90;;;;;;482878;246;28911;-68
2022/10/25 02:56:12;;;;;;;1.40;1.20;;;12.60;99.90;;;;;;482862;246;28762;-67
2022/10/25 02:58:13;;;;;;;1.80;1.30;;;12.60;99.90;;;;;;482912;246;28398;-67
2022/10/25 03:00:16;;;;;;;1.27;1.10;;;;;;;;;;483028;246;28099;-67
2022/10/25 03:02:17;;;;;;;3.10;1.60;;;12.50;99.90;;;;;;482884;245;27188;-68
2022/10/25 03:04:18;;;;;;;1.27;1.10;;;12.50;99.90;;;;;;482928;246;28227;-68
2022/10/25 03:06:19;;;;;;;1.70;1.50;;;12.60;99.90;;;;;;482885;246;28887;-68
2022/10/25 03:08:21;;;;;;;4.43;1.80;;;12.60;99.90;;;;;;482917;246;28675;-68
2022/10/25 03:10:22;;;;;;;1.80;1.70;;;12.60;99.90;;;;;;482919;246;28606;-67
2022/10/25 03:12:24;;;;;;;4.60;1.63;;;;;;;;;;482866;246;28114;-71
2022/10/25 03:14:26;;;;;;;3.60;1.50;;;12.60;99.90;;;;;;482924;246;27109;-68
2022/10/25 03:16:27;;;;;;;3.67;1.73;;;12.60;99.90;;;;;;482885;246;28245;-68
2022/10/25 03:18:28;;;;;;;2.27;1.60;;;12.60;99.90;;;;;;482906;246;28664;-67
2022/10/25 03:20:31;;;;;;;2.20;1.30;;;;;;;;;;482919;246;29169;-72
2022/10/25 03:22:32;;;;;;;3.73;1.83;;;12.60;99.90;;;;;;482925;245;27104;-68
2022/10/25 03:24:33;;;;;;;3.17;1.40;;;12.70;99.90;;;;;;482920;246;28024;-68
2022/10/25 03:26:34;;;;;;;2.67;1.70;;;12.70;99.90;;;;;;482858;246;28211;-67
2022/10/25 03:28:36;;;;;;;1.47;1.37;;;12.70;99.90;;;;;;482918;246;28444;-68
2022/10/25 03:30:37;;;;;;;4.43;1.80;;;12.70;99.90;;;;;;482909;246;28417;-67
2022/10/25 03:32:38;;;;;;;1.90;1.47;;;12.70;99.90;;;;;;482902;246;28699;-68
2022/10/25 03:34:39;;;;;;;3.43;1.40;;;12.60;99.90;;;;;;482918;246;28716;-69
2022/10/25 03:36:41;;;;;;;3.30;1.60;;;12.70;99.90;;;;;;482867;246;28906;-68
2022/10/25 03:38:42;;;;;;;3.00;1.60;;;12.70;99.90;;;;;;482875;246;28088;-69
2022/10/25 03:40:43;;;;;;;1.93;1.30;;;12.70;99.90;;;;;;482916;246;28322;-68
2022/10/25 03:42:44;;;;;;;2.63;1.90;;;12.70;99.90;;;;;;482892;246;28071;-68
2022/10/25 03:44:46;;;;;;;1.80;1.50;;;12.70;99.90;;;;;;482913;246;27872;-68
2022/10/25 03:46:47;;;;;;;1.87;1.40;;;12.70;99.90;;;;;;482866;246;28230;-68
2022/10/25 03:48:48;;;;;;;4.07;1.57;;;12.70;99.90;;;;;;482912;246;28293;-69
2022/10/25 03:50:49;;;;;;;3.13;2.17;;;12.70;99.90;;;;;;482913;246;28499;-70
2022/10/25 03:52:51;;;;;;;1.37;1.20;;;12.70;99.90;;;;;;482900;246;28067;-67
2022/10/25 03:54:52;;;;;;;1.53;1.43;;;12.70;99.90;;;;;;482909;246;28083;-68
2022/10/25 03:56:53;;;;;;;5.70;2.00;;;12.70;99.90;;;;;;482861;246;28787;-69
2022/10/25 03:58:54;;;;;;;4.47;1.97;;;12.80;99.90;;;;;;482899;246;28431;-68
2022/10/25 04:00:56;;;;;;;2.93;1.63;;;12.80;99.90;;;;;;482918;246;28627;-70
2022/10/25 04:02:57;;;;;;;3.90;1.50;;;12.80;99.90;;;;;;482909;246;28670;-68
2022/10/25 04:04:58;;;;;;;2.33;1.47;;;12.80;99.90;;;;;;482915;246;28506;-70
2022/10/25 04:06:59;;;;;;;2.20;1.67;;;12.80;99.90;;;;;;482862;246;28132;-67
2022/10/25 04:09:02;;;;;;;2.80;1.50;;;;;;;;;;482909;246;28057;-69
2022/10/25 04:11:03;;;;;;;2.67;1.50;;;12.70;99.90;;;;;;482907;245;27537;-68
2022/10/25 04:13:04;;;;;;;2.80;1.60;;;12.70;99.90;;;;;;482913;246;28568;-69
2022/10/25 04:15:06;;;;;;;3.43;2.27;;;12.70;99.90;;;;;;482910;246;28546;-68
2022/10/25 04:17:07;;;;;;;1.53;1.43;;;12.80;99.90;;;;;;482862;246;28036;-68
2022/10/25 04:19:08;;;;;;;2.73;1.43;;;12.80;99.90;;;;;;482917;246;28122;-71
2022/10/25 04:21:09;;;;;;;2.43;1.50;;;12.80;99.90;;;;;;482914;246;28018;-69
2022/10/25 04:23:11;;;;;;;2.67;1.30;;;12.80;99.90;;;;;;482909;246;28197;-69
2022/10/25 04:25:12;;;;;;;2.00;1.87;;;12.80;99.90;;;;;;482908;246;28339;-67
2022/10/25 04:27:13;;;;;;;3.40;1.63;;;12.70;99.90;;;;;;482867;246;27944;-68
2022/10/25 04:29:17;;;;;;;3.60;1.70;;;12.70;99.90;;;;;;482919;246;28234;-70
2022/10/25 04:31:16;;;;;;;2.13;1.93;;;12.70;99.90;;;;;;482653;246;28544;-68
2022/10/25 04:33:17;;;;;;;1.60;1.50;;;12.70;99.90;;;;;;482900;246;28081;-69
2022/10/25 04:35:18;;;;;;;1.97;1.60;;;12.70;99.90;;;;;;482264;246;28660;-68
2022/10/25 04:37:19;;;;;;;1.60;1.50;;;12.70;99.90;;;;;;478576;246;28932;-69
2022/10/25 04:39:21;;;;;;;1.70;1.43;;;12.80;99.90;;;;;;482072;235;28796;-73
2022/10/25 04:41:22;;;;;;;3.50;1.90;;;12.80;99.90;;;;;;492441;241;27933;-68
2022/10/25 04:43:23;;;;;;;4.30;1.60;;;12.80;99.90;;;;;;482521;246;28071;-69
2022/10/25 04:45:24;;;;;;;1.83;1.73;;;12.80;99.90;;;;;;482521;245;28138;-67
2022/10/25 04:47:26;;;;;;;2.30;2.10;;;12.80;99.90;;;;;;482484;246;28122;-68
2022/10/25 04:49:27;;;;;;;1.80;1.70;;;12.80;99.90;;;;;;482026;247;28040;-70
2022/10/25 04:51:29;;;;;;;2.00;1.90;;;;;;;;;;490516;242;28048;-68
2022/10/25 04:53:31;;;;;;;2.10;1.80;;;12.70;99.90;;;;;;490519;242;27282;-67
2022/10/25 04:55:32;;;;;;;3.50;1.97;;;12.80;99.90;;;;;;490519;242;28092;-68
2022/10/25 04:57:33;;;;;;;3.03;1.80;;;12.80;99.90;;;;;;490470;242;28404;-70
2022/10/25 04:59:34;;;;;;;1.80;1.70;;;12.80;99.90;;;;;;490508;242;27936;-68
2022/10/25 05:01:37;;;;;;;1.60;1.50;;;;;;;;;;490529;241;28294;-69
2022/10/25 05:03:38;;;;;;;2.53;1.90;;;12.80;99.90;;;;;;490518;241;27477;-69
2022/10/25 05:05:39;;;;;;;2.03;1.80;;;12.80;99.90;;;;;;490518;242;28549;-70
2022/10/25 05:07:40;;;;;;;2.20;1.97;;;12.80;99.90;;;;;;490491;241;28428;-67
2022/10/25 05:09:42;;;;;;;2.03;1.80;;;12.80;99.90;;;;;;490517;242;28744;-69
2022/10/25 05:11:43;;;;;;;2.90;1.67;;;12.80;99.90;;;;;;490518;242;28413;-68
2022/10/25 05:13:44;;;;;;;1.90;1.80;;;12.80;99.90;;;;;;490524;242;28487;-68
2022/10/25 05:15:45;;;;;;;3.53;2.50;;;12.80;99.90;;;;;;490519;242;28523;-70
2022/10/25 05:17:47;;;;;;;2.30;2.10;;;12.80;99.90;;;;;;490474;241;28422;-68
2022/10/25 05:19:48;;;;;;;2.30;2.10;;;12.80;99.90;;;;;;490511;242;28429;-69
2022/10/25 05:21:49;;;;;;;2.40;1.93;;;12.80;99.90;;;;;;490519;241;28363;-68
2022/10/25 05:23:50;;;;;;;3.43;2.13;;;12.80;99.90;;;;;;490523;241;28062;-68
2022/10/25 05:25:52;;;;;;;3.33;1.37;;;12.80;99.90;;;;;;490512;242;28441;-69
2022/10/25 05:27:53;;;;;;;8.10;1.90;;;12.80;99.90;;;;;;490467;242;28786;-68
2022/10/25 05:29:54;;;;;;;1.63;1.53;;;12.70;99.90;;;;;;490504;242;28906;-68
2022/10/25 05:31:56;;;;;;;2.40;1.50;;;12.70;99.90;;;;;;490510;242;28638;-68
2022/10/25 05:33:57;;;;;;;1.70;1.60;;;12.70;99.90;;;;;;490522;242;28005;-68
2022/10/25 05:35:58;;;;;;;5.47;1.80;;;12.70;99.90;;;;;;490516;242;28551;-69
2022/10/25 05:37:59;;;;;;;4.70;1.67;;;12.70;99.90;;;;;;490477;242;27971;-68
2022/10/25 05:40:00;;;;;;;6.60;2.40;;;12.70;99.90;;;;;;490511;242;28145;-69
2022/10/25 05:42:05;;;;;;;5.13;2.17;;;12.70;99.90;;;;;;490534;242;28020;-67
2022/10/25 05:44:03;;;;;;;2.93;1.80;;;12.70;99.90;;;;;;490237;242;28080;-68
2022/10/25 05:46:04;;;;;;;2.40;1.70;;;12.70;99.90;;;;;;490198;242;28429;-70
2022/10/25 05:48:06;;;;;;;5.40;1.70;;;12.70;99.90;;;;;;490488;242;28060;-68
2022/10/25 05:50:07;;;;;;;3.30;1.70;;;12.70;99.90;;;;;;490515;241;28295;-69
2022/10/25 05:52:08;;;;;;;3.87;1.83;;;12.70;99.90;;;;;;490516;242;28815;-68
2022/10/25 05:54:09;;;;;;;1.90;1.60;;;12.60;99.90;;;;;;490510;242;28515;-68
2022/10/25 05:56:11;;;;;;;2.40;1.60;;;12.60;99.90;;;;;;490463;242;29213;-69
2022/10/25 05:58:12;;;;;;;3.43;2.10;;;12.60;99.90;;;;;;490495;242;28171;-68
2022/10/25 06:00:13;;;;;;;3.13;1.57;;;12.60;99.90;;;;;;490502;242;27930;-69
2022/10/25 06:02:14;;;;;;;6.73;1.90;;;12.70;99.90;;;;;;490195;242;27952;-68
2022/10/25 06:04:16;;;;;;;2.50;1.77;;;12.70;99.90;;;;;;490510;242;27924;-69
2022/10/25 06:06:17;;;;;;;2.00;1.60;;;12.60;99.90;;;;;;490464;242;28104;-71
2022/10/25 06:08:18;;;;;;;3.57;1.60;;;12.70;99.90;;;;;;490487;242;28318;-67
2022/10/25 06:10:19;;;;;;;3.00;1.80;;;12.60;99.90;;;;;;490506;242;28276;-69
2022/10/25 06:12:21;;;;;;;4.00;1.97;;;12.70;99.90;;;;;;490525;241;28266;-69
2022/10/25 06:14:22;;;;;;;5.07;1.73;;;12.60;99.90;;;;;;490503;242;28427;-69
2022/10/25 06:16:23;;;;;;;2.80;1.50;;;12.70;99.90;;;;;;490473;242;28419;-69
2022/10/25 06:18:24;;;;;;;7.13;2.00;;;12.70;99.90;;;;;;490529;242;28609;-68
2022/10/25 06:20:26;;;;;;;5.43;1.80;;;12.70;99.90;;;;;;490523;242;28638;-68
2022/10/25 06:22:27;;;;;;;4.03;1.80;;;12.70;99.90;;;;;;490500;242;28232;-68
2022/10/25 06:24:28;;;;;;;3.07;1.93;;;12.60;99.90;;;;;;490514;242;28035;-68
2022/10/25 06:26:29;;;;;;;2.93;1.70;;;12.60;99.90;;;;;;490426;242;28298;-70
2022/10/25 06:28:32;;;;;;;2.80;1.90;;;;;;;;;;490502;242;28212;-69
2022/10/25 06:30:33;;;;;;;6.90;1.90;;;12.60;99.90;;;;;;490514;242;27730;-68
2022/10/25 06:32:36;;;;;;;2.97;1.70;;;12.60;99.90;;;;;;490509;242;28685;-68
2022/10/25 06:34:35;;;;;;;4.27;2.20;;;12.60;99.90;;;;;;490375;242;28821;-70
2022/10/25 06:36:37;;;;;;;4.87;2.20;;;12.70;99.90;;;;;;490477;242;27950;-68
2022/10/25 06:38:38;;;;;;;7.23;2.43;;;12.70;99.90;;;;;;490510;241;28405;-69
2022/10/25 06:40:39;;;;;;;2.50;1.60;;;12.70;99.90;;;;;;490512;241;27956;-68
2022/10/25 06:42:41;;;;;;;2.27;1.93;;;12.70;99.90;;;;;;490520;242;28112;-68
2022/10/25 06:44:43;;;;;;;2.83;2.00;;;;;;;;;;490410;242;28209;-67
2022/10/25 06:46:44;;;;;;;3.23;2.10;;;12.70;99.90;;;;;;490467;241;27650;-69
2022/10/25 06:48:45;;;;;;;3.07;1.83;;;12.70;99.90;;;;;;490526;241;28471;-68
2022/10/25 06:50:47;;;;;;;3.60;1.80;;;12.70;99.90;;;;;;490505;242;28369;-70
2022/10/25 06:52:48;;;;;;;3.20;1.67;;;12.70;99.90;;;;;;490511;242;27960;-68
2022/10/25 06:54:50;;;;;;;1.90;1.80;;;;;;;;;;490506;242;27994;-68
2022/10/25 06:56:52;;;;;;;3.53;1.80;;;12.80;99.90;;;;;;490461;241;27395;-71
2022/10/25 06:58:53;;;;;;;2.33;1.73;;;12.80;99.90;;;;;;490496;242;28510;-68
2022/10/25 07:00:54;;;;;;;2.23;2.03;;;12.80;99.90;;;;;;490504;242;28711;-71
2022/10/25 07:02:55;;;;;;;3.37;1.90;;;12.80;99.90;;;;;;490499;242;28154;-68
2022/10/25 07:04:57;;;;;;;2.73;1.70;;;12.80;99.90;;;;;;490504;242;28041;-68
2022/10/25 07:06:58;;;;;;;2.13;1.87;;;12.80;99.90;;;;;;490470;242;28210;-67
2022/10/25 07:08:59;;;;;;;3.90;1.70;;;12.90;99.90;;;;;;490504;242;28020;-68
2022/10/25 07:11:00;;;;;;;2.63;1.80;;;12.90;99.90;;;;;;490499;242;28169;-69
2022/10/25 07:13:02;;;;;;;2.30;1.57;;;12.90;99.90;;;;;;490492;242;28179;-68
2022/10/25 07:15:03;;;;;;;6.50;1.70;;;13.00;99.90;;;;;;490502;242;28173;-70
2022/10/25 07:17:04;;;;;;;3.73;1.87;;;13.00;99.90;;;;;;490456;242;28308;-72
2022/10/25 07:19:05;;;;;;;3.80;2.00;;;12.90;99.90;;;;;;490483;241;28205;-70
2022/10/25 07:21:08;;;;;;;4.63;1.87;;;;;;;;;;490500;242;28899;-68
2022/10/25 07:23:09;;;;;;;4.50;1.90;;;13.00;99.90;;;;;;490507;241;26824;-68
2022/10/25 07:25:10;;;;;;;4.00;2.13;;;13.00;99.90;;;;;;490497;242;27959;-68
2022/10/25 07:27:13;;;;;;;6.87;2.00;;;;;;;;;;490472;242;28210;-68
2022/10/25 07:29:14;;;;;;;3.13;1.70;;;13.00;99.90;;;;;;490426;241;27399;-68
2022/10/25 07:31:15;;;;;;;1.53;1.40;;;13.00;99.90;;;;;;490506;242;27961;-67
2022/10/25 07:33:16;;;;;;;2.73;1.80;;;13.00;99.90;;;;;;490498;242;28054;-70
2022/10/25 07:35:18;;;;;;;3.50;1.90;;;13.10;99.90;;;;;;490505;242;28086;-70
2022/10/25 07:37:19;;;;;;;2.20;1.87;;;13.00;99.90;;;;;;490468;242;27966;-71
2022/10/25 07:39:20;;;;;;;4.50;1.90;;;13.00;99.90;;;;;;490493;242;28188;-69
2022/10/25 07:41:21;;;;;;;4.23;1.83;;;13.10;99.90;;;;;;490507;242;28125;-69
2022/10/25 07:43:23;;;;;;;2.60;2.10;;;13.00;99.90;;;;;;490514;242;28707;-70
2022/10/25 07:45:24;;;;;;;2.20;1.73;;;13.10;99.90;;;;;;490506;242;28301;-68
2022/10/25 07:47:25;;;;;;;4.07;2.53;;;13.10;99.90;;;;;;490483;242;28272;-69
2022/10/25 07:49:26;;;;;;;3.83;2.03;;;13.10;99.90;;;;;;490518;242;28782;-67
2022/10/25 07:51:28;;;;;;;4.00;2.30;;;13.10;99.90;;;;;;490530;242;28735;-69
2022/10/25 07:53:29;;;;;;;5.50;1.87;;;13.10;99.90;;;;;;490519;242;28659;-71
2022/10/25 07:55:30;;;;;;;3.23;1.80;;;13.10;99.90;;;;;;490533;242;28166;-70
2022/10/25 07:57:31;;;;;;;5.07;1.93;;;13.20;99.90;;;;;;490462;242;28172;-69
2022/10/25 07:59:33;;;;;;;3.13;2.10;;;13.20;99.90;;;;;;490518;242;28285;-70
2022/10/25 08:01:35;;;;;;;5.30;2.27;;;13.20;99.90;;;;;;490524;241;28193;-71
2022/10/25 08:03:35;;;;;;;2.83;1.73;;;13.20;99.90;;;;;;490489;242;28445;-71
2022/10/25 08:05:36;;;;;;;2.00;1.50;;;13.20;99.90;;;;;;490517;242;28292;-70
2022/10/25 08:07:38;;;;;;;2.10;1.90;;;13.20;99.90;;;;;;490483;242;28194;-71
2022/10/25 08:09:39;;;;;;;4.50;2.20;;;13.30;99.90;;;;;;490520;242;28276;-68
2022/10/25 08:11:40;;;;;;;6.00;2.30;;;13.20;99.90;;;;;;490513;242;28090;-70
2022/10/25 08:13:42;;;;;;;3.80;2.27;;;13.30;99.90;;;;;;490518;242;28603;-71
2022/10/25 08:15:43;;;;;;;4.80;2.20;;;13.20;99.90;;;;;;490420;242;28623;-68
2022/10/25 08:17:44;;;;;;;4.00;2.37;;;13.40;99.90;;;;;;490477;242;28684;-70
2022/10/25 08:19:45;;;;;;;4.63;2.47;;;13.40;99.90;;;;;;490501;242;28762;-69
2022/10/25 08:21:47;;;;;;;2.90;1.77;;;13.40;99.90;;;;;;490534;242;28284;-68
2022/10/25 08:23:48;;;;;;;3.47;2.10;;;13.30;99.90;;;;;;490522;242;28308;-71
2022/10/25 08:25:49;;;;;;;6.03;1.80;;;13.40;99.90;;;;;;490512;242;28178;-68
2022/10/25 08:27:50;;;;;;;7.87;2.30;;;13.40;99.90;;;;;;490524;242;28096;-69
2022/10/25 08:29:52;;;;;;;5.13;2.33;;;13.50;99.90;;;;;;490517;242;28279;-70
2022/10/25 08:31:53;;;;;;;2.83;1.97;;;13.50;99.90;;;;;;490513;241;28206;-69
2022/10/25 08:33:54;;;;;;;5.37;2.07;;;13.50;99.90;;;;;;490526;242;28282;-69
2022/10/25 08:35:55;;;;;;;6.57;2.07;;;13.50;99.90;;;;;;490515;242;28303;-68
2022/10/25 08:37:57;;;;;;;3.30;1.67;;;13.60;99.90;;;;;;490516;242;28101;-69
2022/10/25 08:39:58;;;;;;;4.93;2.30;;;13.70;99.90;;;;;;490505;242;29100;-68
2022/10/25 08:41:59;;;;;;;3.53;1.83;;;13.80;99.90;;;;;;490521;242;28633;-69
2022/10/25 08:44:02;;;;;;;3.77;1.80;;;13.90;99.90;;;;;;490518;242;28865;-70
2022/10/25 08:46:02;;;;;;;2.83;1.60;;;13.90;99.90;;;;;;490449;242;28422;-69
2022/10/25 08:48:03;;;;;;;3.93;2.00;;;13.90;99.90;;;;;;490516;242;28791;-68
2022/10/25 08:50:04;;;;;;;2.73;1.47;;;13.90;99.90;;;;;;490525;241;28292;-68
2022/10/25 08:52:05;;;;;;;3.07;1.53;;;13.90;99.90;;;;;;490518;242;28269;-68
2022/10/25 08:54:07;;;;;;;2.83;1.40;;;14.00;99.90;;;;;;490512;242;28306;-70
2022/10/25 08:56:08;;;;;;;2.93;1.87;;;14.10;99.90;;;;;;490515;242;28375;-68
2022/10/25 08:58:09;;;;;;;5.13;1.90;;;14.10;99.90;;;;;;490506;242;28382;-68
2022/10/25 09:00:10;;;;;;;6.90;2.20;;;14.10;99.90;;;;;;490507;242;28389;-68
2022/10/25 09:02:12;;;;;;;3.83;1.77;;;14.00;99.90;;;;;;490512;242;28202;-69
2022/10/25 09:04:14;;;;;;;4.30;1.90;;;14.00;99.90;;;;;;490504;242;28806;-69
2022/10/25 09:06:14;;;;;;;3.40;1.80;;;14.20;99.90;;;;;;490452;242;28659;-68
2022/10/25 09:08:15;;;;;;;4.30;1.90;;;14.40;99.90;;;;;;490519;242;28861;-69
2022/10/25 09:10:17;;;;;;;6.13;2.00;;;14.30;99.90;;;;;;490517;242;28575;-68
2022/10/25 09:12:18;;;;;;;5.30;2.37;;;14.30;99.90;;;;;;490522;242;28716;-68
2022/10/25 09:14:19;;;;;;;3.43;1.87;;;14.40;99.90;;;;;;490535;242;28326;-69
2022/10/25 09:16:20;;;;;;;5.77;2.40;;;14.40;99.90;;;;;;490516;242;28814;-67
2022/10/25 09:18:22;;;;;;;3.40;1.73;;;14.40;99.90;;;;;;490516;242;28775;-69
2022/10/25 09:20:23;;;;;;;2.97;1.50;;;14.50;99.90;;;;;;490509;242;28706;-68
2022/10/25 09:22:25;;;;;;;3.33;1.70;;;14.50;99.90;;;;;;490513;242;28293;-69
2022/10/25 09:24:25;;;;;;;3.20;1.67;;;14.50;99.90;;;;;;490483;241;28407;-69
2022/10/25 09:26:27;;;;;;;4.73;1.73;;;14.60;99.90;;;;;;490516;242;28524;-68
2022/10/25 09:28:28;;;;;;;2.92;1.40;;;14.70;99.90;;;;;;488851;242;36430;-69
2022/10/25 09:30:29;;;;;;;1.83;1.40;;;14.70;99.90;;;;;;490515;242;27921;-68
2022/10/25 09:32:30;;;;;;;2.50;1.57;;;14.70;99.90;;;;;;490523;241;29168;-68
2022/10/25 09:34:35;;;;;;;5.57;1.40;;;14.70;99.90;;;;;;490509;242;28724;-69
2022/10/25 09:36:36;;;;;;;2.27;1.43;;;14.80;99.90;;;;;;490521;242;28805;-68
2022/10/25 09:38:38;;;;;;;3.13;1.53;;;14.90;99.90;;;;;;490505;242;29543;-68
2022/10/25 09:40:38;;;;;;;6.50;1.60;;;14.90;99.90;;;;;;490450;242;29266;-68
2022/10/25 09:42:40;;;;;;;4.93;1.57;;;14.90;99.90;;;;;;490514;242;29199;-70
2022/10/25 09:44:41;;;;;;;2.37;1.33;;;14.70;99.90;;;;;;490499;242;28808;-68
2022/10/25 09:46:42;;;;;;;3.10;1.60;;;14.70;99.90;;;;;;490515;242;28728;-69
2022/10/25 09:48:45;;;;;;;4.53;1.50;;;14.70;99.90;;;;;;490500;242;28823;-69
2022/10/25 09:50:45;;;;;;;3.83;1.13;;;14.60;99.90;;;;;;490072;242;28785;-68
2022/10/25 09:52:46;;;;;;;6.17;1.93;;;14.60;99.90;;;;;;490491;242;28717;-71
2022/10/25 09:54:47;;;;;;;4.40;1.97;;;14.60;99.90;;;;;;490502;242;28433;-68
2022/10/25 09:56:48;;;;;;;2.30;1.37;;;14.50;99.90;;;;;;490511;242;28791;-69
2022/10/25 09:58:50;;;;;;;3.37;1.60;;;14.50;99.90;;;;;;490504;242;28708;-69
2022/10/25 10:00:51;;;;;;;2.50;1.50;;;14.50;99.90;;;;;;490494;242;28690;-69
2022/10/25 10:02:52;;;;;;;1.77;1.50;;;14.50;99.90;;;;;;490509;242;29216;-69
2022/10/25 10:04:53;;;;;;;2.70;1.40;;;14.40;99.90;;;;;;490507;242;28868;-68
2022/10/25 10:06:55;;;;;;;3.73;2.17;;;14.40;99.90;;;;;;490508;242;28950;-70
2022/10/25 10:08:56;;;;;;;1.90;1.40;;;14.20;99.90;;;;;;490489;242;28410;-69
2022/10/25 10:10:57;;;;;;;5.60;1.77;;;14.20;99.90;;;;;;490506;242;28299;-68
2022/10/25 10:12:58;;;;;;;4.63;1.93;;;14.30;99.90;;;;;;490509;242;28723;-68
2022/10/25 10:15:00;;;;;;;2.20;1.60;;;14.30;99.90;;;;;;490503;242;28802;-68
2022/10/25 10:17:01;;;;;;;4.13;1.80;;;14.40;99.90;;;;;;490504;242;28701;-68
2022/10/25 10:19:02;;;;;;;2.27;1.30;;;14.50;99.90;;;;;;490504;242;28421;-70
2022/10/25 10:21:03;;;;;;;2.63;1.70;;;14.40;99.90;;;;;;490494;242;28308;-69
2022/10/25 10:23:05;;;;;;;5.33;1.47;;;14.50;99.90;;;;;;490495;242;28721;-69
2022/10/25 10:25:06;;;;;;;2.30;1.40;;;14.40;99.90;;;;;;490501;242;28197;-69
2022/10/25 10:27:07;;;;;;;3.70;1.60;;;14.40;99.90;;;;;;490492;241;29063;-69
2022/10/25 10:29:08;;;;;;;2.83;1.60;;;14.30;99.90;;;;;;490501;242;28919;-70
2022/10/25 10:31:10;;;;;;;3.90;1.50;;;14.30;99.90;;;;;;490509;242;29210;-68
2022/10/25 10:33:12;;;;;;;2.60;1.23;;;14.30;99.90;;;;;;490512;242;28737;-69
2022/10/25 10:35:12;;;;;;;2.53;1.30;;;14.50;99.90;;;;;;490442;242;28809;-69